Terminal Aerodrome Forecast
Issued by NWS Twin Cities, MN

Home | Current Version | Previous Version | Graphics & Text | Print | Product List | Glossary On
Versions: 1 2 3 4 5 6 7 8 9 10 11 12 13 14 15
000
FTUS43 KMPX 190500
TAFEAU
TAF
KEAU 190521Z 1906/2006 15006KT P6SM SCT250
     FM190900 16007KT 5SM BR SCT005
      TEMPO 1909/1912 2SM BR BKN005
     FM191300 17014G20KT P6SM SCT008 BKN120
     FM191700 18018G26KT P6SM VCSH SCT025 OVC035
     FM200000 19015KT P6SM VCTS BKN025CB OVC045=

USA.gov is the U.S. government's official web portal to all federal, state and local government web resources and services.